Time;durP1;ratioP1;P1;durP2;ratioP2;P2;SDS_P1;SDS_P2;PMS_P1;PMS_P2;Temp;Humidity;BMP_temperature;BMP_pressure;BME280_temperature;BME280_humidity;BME280_pressure;Samples;Min_cycle;Max_cycle;Signal;HPM_P1;HPM_P2
2023/09/29 00:02:00;;;;;;;2.15;1.25;;;18.70;76.10;;;;;;5059944;28;20029;-67
2023/09/29 00:04:27;;;;;;;1.27;1.17;;;18.60;76.00;;;;;;5064287;28;20039;-68
2023/09/29 00:06:54;;;;;;;2.00;1.10;;;18.60;76.00;;;;;;5053935;28;20044;-68
2023/09/29 00:09:20;;;;;;;1.20;1.10;;;18.60;76.00;;;;;;5062581;28;20040;-68
2023/09/29 00:11:48;;;;;;;1.55;1.40;;;18.60;76.00;;;;;;5063362;28;20024;-67
2023/09/29 00:14:14;;;;;;;2.58;1.20;;;18.60;76.00;;;;;;5056531;28;20465;-67
2023/09/29 00:16:40;;;;;;;1.35;1.20;;;18.60;76.10;;;;;;5060508;28;20032;-69
2023/09/29 00:19:06;;;;;;;1.65;1.40;;;18.60;76.60;;;;;;5054456;28;20035;-69
2023/09/29 00:21:32;;;;;;;2.47;1.10;;;18.60;76.10;;;;;;5060180;28;20036;-69
2023/09/29 00:23:58;;;;;;;1.00;1.00;;;18.60;76.10;;;;;;5066409;28;20032;-68
2023/09/29 00:26:24;;;;;;;1.27;1.17;;;18.50;76.00;;;;;;5057456;28;20108;-68
2023/09/29 00:28:50;;;;;;;0.93;0.93;;;18.50;76.10;;;;;;5054569;28;20028;-67
2023/09/29 00:31:16;;;;;;;1.00;0.82;;;18.50;76.10;;;;;;5062242;28;20036;-68
2023/09/29 00:33:42;;;;;;;1.05;1.00;;;18.50;76.10;;;;;;5056877;28;20072;-67
2023/09/29 00:36:11;;;;;;;1.35;1.25;;;18.50;76.10;;;;;;5059287;28;20053;-68
2023/09/29 00:38:37;;;;;;;1.08;0.98;;;18.50;76.10;;;;;;5059886;28;20036;-67
2023/09/29 00:41:03;;;;;;;1.08;0.88;;;18.40;75.90;;;;;;5062661;28;20033;-70
2023/09/29 00:43:29;;;;;;;1.10;1.00;;;18.50;76.20;;;;;;5064482;28;20032;-69
2023/09/29 00:45:55;;;;;;;1.13;0.90;;;18.40;76.00;;;;;;5055340;28;20028;-65
2023/09/29 00:48:22;;;;;;;1.20;1.10;;;18.40;76.00;;;;;;5057241;28;20120;-65
2023/09/29 00:50:49;;;;;;;1.00;0.90;;;18.40;76.10;;;;;;5061278;28;20033;-65
2023/09/29 00:53:18;;;;;;;1.17;1.08;;;18.40;76.20;;;;;;5060577;28;20036;-67
2023/09/29 00:55:47;;;;;;;1.45;1.10;;;18.40;76.20;;;;;;5060598;28;20519;-66
2023/09/29 00:58:15;;;;;;;1.23;1.13;;;18.40;76.20;;;;;;5056296;28;20044;-67
2023/09/29 01:00:42;;;;;;;1.05;0.95;;;18.40;76.20;;;;;;5057649;28;20037;-66
2023/09/29 01:03:12;;;;;;;1.20;1.10;;;18.40;76.30;;;;;;5062402;28;20086;-69
2023/09/29 01:05:45;;;;;;;1.63;1.52;;;18.40;76.30;;;;;;5059410;28;20036;-68
2023/09/29 01:08:19;;;;;;;1.30;1.20;;;18.40;76.30;;;;;;5058064;28;20027;-71
2023/09/29 01:10:45;;;;;;;1.40;1.30;;;18.30;76.20;;;;;;5059176;28;20032;-70
2023/09/29 01:13:12;;;;;;;1.67;1.58;;;18.30;76.20;;;;;;5056770;28;20538;-70
2023/09/29 01:15:39;;;;;;;1.27;1.17;;;18.30;76.20;;;;;;5050081;28;20037;-69
2023/09/29 01:18:11;;;;;;;1.48;1.17;;;18.30;76.20;;;;;;5061737;28;20042;-67
2023/09/29 01:20:39;;;;;;;1.25;1.15;;;18.30;76.30;;;;;;5056993;28;20055;-67
2023/09/29 01:23:07;;;;;;;2.83;1.08;;;18.30;76.30;;;;;;5060971;28;20036;-68
2023/09/29 01:25:34;;;;;;;1.80;1.35;;;18.30;76.30;;;;;;5059642;28;20119;-67
2023/09/29 01:28:03;;;;;;;1.20;1.10;;;18.30;76.30;;;;;;5052503;28;20029;-67
2023/09/29 01:30:31;;;;;;;2.17;1.02;;;18.30;76.40;;;;;;5059588;28;20036;-68
2023/09/29 01:32:57;;;;;;;1.08;1.05;;;18.30;76.40;;;;;;5065527;28;20031;-67
2023/09/29 01:35:24;;;;;;;1.10;1.00;;;18.20;76.30;;;;;;5053572;28;20511;-66
2023/09/29 01:37:53;;;;;;;1.13;1.02;;;18.20;76.30;;;;;;5050795;28;20036;-68
2023/09/29 01:40:21;;;;;;;1.30;1.20;;;18.20;76.30;;;;;;5052155;28;20044;-68
2023/09/29 01:42:47;;;;;;;1.30;1.20;;;18.20;76.90;;;;;;5063507;28;20028;-70
2023/09/29 01:45:14;;;;;;;1.90;1.30;;;18.10;76.20;;;;;;5057100;28;20383;-70
2023/09/29 01:47:42;;;;;;;1.65;1.30;;;18.10;76.20;;;;;;5051179;28;20037;-70
2023/09/29 01:50:14;;;;;;;1.50;1.40;;;18.10;76.30;;;;;;5050924;28;20040;-72
2023/09/29 01:52:42;;;;;;;1.13;1.02;;;18.10;76.30;;;;;;5050238;28;20057;-68
2023/09/29 01:55:16;;;;;;;1.67;1.50;;;18.00;76.20;;;;;;5054779;28;20036;-68
2023/09/29 01:57:43;;;;;;;1.65;1.25;;;18.00;76.30;;;;;;5049010;28;20112;-68
2023/09/29 02:00:14;;;;;;;1.20;1.10;;;18.00;76.30;;;;;;5053810;28;20190;-67
2023/09/29 02:02:43;;;;;;;1.83;1.23;;;18.00;76.40;;;;;;5055341;28;20044;-66
2023/09/29 02:05:11;;;;;;;2.17;1.13;;;18.00;76.40;;;;;;5052288;28;20556;-66
2023/09/29 02:07:38;;;;;;;1.60;1.42;;;18.00;76.40;;;;;;5046032;28;20061;-68
2023/09/29 02:10:04;;;;;;;1.52;1.42;;;18.00;76.40;;;;;;5053782;28;20037;-67
2023/09/29 02:12:31;;;;;;;1.38;1.27;;;18.00;76.40;;;;;;5047108;28;20658;-71
2023/09/29 02:14:57;;;;;;;1.27;1.15;;;18.00;76.40;;;;;;5051268;28;20067;-68
2023/09/29 02:17:23;;;;;;;1.40;1.27;;;17.90;76.30;;;;;;5053668;28;20040;-66
2023/09/29 02:19:52;;;;;;;1.30;1.20;;;17.90;76.30;;;;;;5048421;28;20029;-72
2023/09/29 02:22:19;;;;;;;1.60;1.50;;;18.00;76.50;;;;;;5052490;28;20033;-69
2023/09/29 02:24:45;;;;;;;2.00;1.70;;;17.90;76.40;;;;;;5055149;28;20140;-73
2023/09/29 02:27:11;;;;;;;1.98;1.77;;;17.90;76.40;;;;;;5047924;28;20065;-69
2023/09/29 02:29:37;;;;;;;1.42;1.33;;;17.90;76.40;;;;;;5052638;28;20102;-69
2023/09/29 02:32:03;;;;;;;1.95;1.25;;;17.90;76.50;;;;;;5053842;28;20463;-69
2023/09/29 02:34:29;;;;;;;2.15;1.80;;;17.90;76.50;;;;;;5054422;28;20046;-67
2023/09/29 02:36:55;;;;;;;1.80;1.70;;;17.90;76.50;;;;;;5051336;28;20036;-67
2023/09/29 02:39:22;;;;;;;2.10;1.95;;;17.90;76.50;;;;;;5052498;28;20025;-70
2023/09/29 02:41:48;;;;;;;3.03;1.85;;;17.80;76.40;;;;;;5047975;28;20512;-69
2023/09/29 02:44:14;;;;;;;2.20;2.03;;;17.80;76.50;;;;;;5056178;28;20036;-73
2023/09/29 02:46:40;;;;;;;2.20;2.00;;;17.80;76.50;;;;;;5043908;28;20028;-69
2023/09/29 02:49:07;;;;;;;2.50;1.88;;;17.80;76.50;;;;;;5054432;28;20178;-70
2023/09/29 02:51:33;;;;;;;2.35;1.83;;;17.80;76.60;;;;;;5048770;28;20025;-70
2023/09/29 02:53:59;;;;;;;2.78;2.58;;;17.70;76.50;;;;;;5054478;28;20032;-67
2023/09/29 02:56:28;;;;;;;2.15;1.95;;;17.70;76.50;;;;;;5052632;28;20610;-67
2023/09/29 02:58:54;;;;;;;3.10;2.10;;;17.70;76.50;;;;;;5059499;28;20067;-69
2023/09/29 03:01:22;;;;;;;2.25;2.00;;;17.70;76.60;;;;;;5053873;28;20033;-69
2023/09/29 03:03:48;;;;;;;3.38;2.58;;;17.70;76.60;;;;;;5041600;28;20117;-70
2023/09/29 03:06:23;;;;;;;2.38;2.17;;;17.60;76.50;;;;;;5053285;28;20049;-69
2023/09/29 03:08:54;;;;;;;3.00;2.22;;;17.60;76.60;;;;;;5053754;28;20028;-71
2023/09/29 03:11:25;;;;;;;2.60;2.30;;;17.60;76.60;;;;;;5053018;28;20399;-70
2023/09/29 03:13:54;;;;;;;2.70;2.50;;;17.60;76.70;;;;;;5055307;28;20514;-68
2023/09/29 03:16:24;;;;;;;2.60;2.13;;;17.60;76.70;;;;;;5047323;28;20045;-67
2023/09/29 03:18:50;;;;;;;2.85;2.53;;;17.60;76.80;;;;;;5061836;28;20585;-71
2023/09/29 03:21:17;;;;;;;3.75;2.70;;;17.60;76.70;;;;;;5051754;28;20044;-67
2023/09/29 03:23:45;;;;;;;2.85;2.55;;;17.60;76.80;;;;;;5052261;28;20143;-66
2023/09/29 03:26:16;;;;;;;2.40;2.20;;;17.60;76.80;;;;;;5057681;28;20618;-70
2023/09/29 03:28:43;;;;;;;2.53;2.33;;;17.60;76.90;;;;;;5048069;28;20060;-67
2023/09/29 03:31:09;;;;;;;2.75;2.42;;;17.60;76.90;;;;;;5056271;28;20378;-70
2023/09/29 03:33:35;;;;;;;2.95;2.38;;;17.60;76.90;;;;;;5048872;28;20064;-66
2023/09/29 03:36:02;;;;;;;4.32;2.47;;;17.50;76.70;;;;;;5054809;28;20155;-73
2023/09/29 03:38:28;;;;;;;2.80;2.60;;;17.50;76.70;;;;;;5053704;28;20052;-68
2023/09/29 03:40:56;;;;;;;3.60;2.80;;;17.50;76.80;;;;;;5054310;28;20060;-73
2023/09/29 03:43:25;;;;;;;3.45;3.15;;;17.50;76.80;;;;;;5055763;28;20557;-66
2023/09/29 03:45:53;;;;;;;2.58;2.38;;;17.50;76.80;;;;;;5052155;28;20035;-67
2023/09/29 03:48:20;;;;;;;3.53;2.95;;;17.50;76.90;;;;;;5055943;28;20068;-67
2023/09/29 03:50:49;;;;;;;4.97;2.75;;;17.50;76.90;;;;;;5055616;28;20442;-68
2023/09/29 03:53:16;;;;;;;3.83;2.67;;;17.50;76.90;;;;;;5052777;28;20431;-70
2023/09/29 03:55:44;;;;;;;2.83;2.13;;;17.50;77.00;;;;;;5054971;28;20074;-67
2023/09/29 03:58:11;;;;;;;3.78;2.38;;;17.50;77.00;;;;;;5054626;28;20036;-74
2023/09/29 04:00:37;;;;;;;3.47;2.58;;;17.50;77.00;;;;;;5057837;28;20041;-69
2023/09/29 04:03:04;;;;;;;5.28;3.00;;;17.50;77.00;;;;;;5060298;28;20546;-66
2023/09/29 04:05:30;;;;;;;3.00;2.75;;;17.50;77.00;;;;;;5056122;28;20039;-68
2023/09/29 04:07:56;;;;;;;4.57;2.97;;;17.50;77.10;;;;;;5043896;28;20583;-73
2023/09/29 04:10:22;;;;;;;4.05;2.42;;;17.40;76.90;;;;;;5056035;28;20399;-68
2023/09/29 04:12:48;;;;;;;3.33;2.10;;;17.40;77.00;;;;;;5059906;28;20033;-66
2023/09/29 04:15:15;;;;;;;4.43;2.40;;;17.40;77.10;;;;;;5055267;28;20484;-71
2023/09/29 04:17:41;;;;;;;3.53;2.95;;;17.40;77.10;;;;;;5062270;28;20144;-67
2023/09/29 04:20:08;;;;;;;5.18;3.35;;;17.40;77.10;;;;;;5062863;28;20627;-70
2023/09/29 04:22:34;;;;;;;5.45;2.75;;;17.40;77.10;;;;;;5064248;28;20059;-68
2023/09/29 04:25:01;;;;;;;5.38;3.35;;;17.40;77.10;;;;;;5063103;28;20035;-69
2023/09/29 04:27:26;;;;;;;5.25;2.80;;;17.40;77.20;;;;;;5065059;28;20883;-66
2023/09/29 04:29:52;;;;;;;5.38;2.88;;;17.40;77.20;;;;;;5068799;28;20072;-69
2023/09/29 04:32:19;;;;;;;5.22;2.80;;;17.40;77.20;;;;;;5063412;28;20029;-68
2023/09/29 04:34:45;;;;;;;7.53;3.22;;;17.40;77.20;;;;;;5067742;28;20032;-68
2023/09/29 04:37:11;;;;;;;4.07;2.40;;;17.40;77.20;;;;;;5063224;28;20029;-70
2023/09/29 04:39:37;;;;;;;5.60;2.83;;;17.40;77.20;;;;;;5064895;28;20354;-68
2023/09/29 04:42:07;;;;;;;4.78;2.58;;;17.40;77.20;;;;;;5055338;28;20032;-69
2023/09/29 04:44:33;;;;;;;7.55;3.47;;;17.40;77.20;;;;;;5057711;28;20496;-68
2023/09/29 04:47:00;;;;;;;5.75;3.47;;;17.40;77.30;;;;;;5058763;28;20037;-70
2023/09/29 04:49:26;;;;;;;3.40;2.20;;;17.40;77.30;;;;;;5054484;28;20086;-67
2023/09/29 04:51:52;;;;;;;4.25;2.83;;;17.30;77.10;;;;;;5059993;28;20235;-67
2023/09/29 04:54:18;;;;;;;4.80;2.88;;;17.30;77.10;;;;;;5054494;28;20032;-67
2023/09/29 04:56:45;;;;;;;4.97;2.30;;;17.30;77.10;;;;;;5054346;28;20342;-67
2023/09/29 04:59:11;;;;;;;3.63;2.13;;;17.20;77.00;;;;;;5060318;28;20044;-67
2023/09/29 05:01:37;;;;;;;4.20;2.50;;;17.20;76.90;;;;;;5059049;28;20089;-67
2023/09/29 05:04:03;;;;;;;3.58;2.63;;;17.20;76.90;;;;;;5063911;28;20479;-70
2023/09/29 05:06:29;;;;;;;4.88;2.90;;;17.10;76.70;;;;;;5060028;28;20109;-67
2023/09/29 05:08:56;;;;;;;3.75;2.40;;;17.10;76.70;;;;;;5054224;28;20032;-69
2023/09/29 05:11:24;;;;;;;6.28;2.92;;;17.10;76.70;;;;;;5063271;28;20032;-71
2023/09/29 05:13:51;;;;;;;4.60;2.28;;;17.00;77.00;;;;;;5058535;28;20084;-70
2023/09/29 05:16:17;;;;;;;5.45;3.33;;;17.00;76.50;;;;;;5052442;28;20618;-67
2023/09/29 05:18:44;;;;;;;8.18;3.33;;;17.00;76.50;;;;;;5061671;28;20037;-67
2023/09/29 05:21:11;;;;;;;8.18;3.25;;;17.00;76.40;;;;;;5060728;28;20055;-69
2023/09/29 05:23:38;;;;;;;7.43;2.85;;;16.90;76.20;;;;;;5047986;28;20033;-67
2023/09/29 05:26:07;;;;;;;6.90;3.88;;;16.90;76.20;;;;;;5059476;28;20040;-67
2023/09/29 05:28:35;;;;;;;5.45;3.03;;;16.90;76.10;;;;;;5058715;28;20644;-67
2023/09/29 05:31:03;;;;;;;5.32;3.00;;;16.90;76.10;;;;;;5056430;28;20028;-68
2023/09/29 05:33:30;;;;;;;13.25;5.63;;;16.80;75.90;;;;;;5051728;28;20238;-67
2023/09/29 05:35:57;;;;;;;8.63;3.67;;;16.70;75.60;;;;;;5057881;28;20032;-69
2023/09/29 05:38:23;;;;;;;9.88;4.40;;;16.70;75.60;;;;;;5058789;28;20365;-67
2023/09/29 05:40:51;;;;;;;10.85;4.53;;;16.70;75.50;;;;;;5057977;28;20089;-67
2023/09/29 05:43:17;;;;;;;13.90;4.18;;;16.60;75.50;;;;;;5052924;28;20037;-66
2023/09/29 05:45:47;;;;;;;9.73;3.58;;;16.50;75.40;;;;;;5056220;28;20098;-68
2023/09/29 05:48:14;;;;;;;8.32;3.53;;;16.50;75.30;;;;;;5057581;28;20449;-67
2023/09/29 05:50:40;;;;;;;7.47;3.88;;;16.40;75.10;;;;;;5059431;28;20169;-70
2023/09/29 05:53:07;;;;;;;8.20;3.47;;;16.40;75.10;;;;;;5052383;28;20032;-70
2023/09/29 05:55:33;;;;;;;9.18;4.25;;;16.30;74.90;;;;;;5049871;28;20036;-68
2023/09/29 05:57:59;;;;;;;11.73;4.78;;;16.20;74.80;;;;;;5051312;28;20432;-67
2023/09/29 06:00:25;;;;;;;9.25;3.90;;;16.20;74.70;;;;;;5059023;28;20067;-68
2023/09/29 06:02:52;;;;;;;9.15;3.72;;;16.10;74.50;;;;;;5059022;28;20079;-67
2023/09/29 06:05:20;;;;;;;10.13;4.40;;;16.10;74.60;;;;;;5049428;28;20043;-68
2023/09/29 06:07:46;;;;;;;8.98;3.78;;;16.00;74.50;;;;;;5059873;28;20481;-67
2023/09/29 06:10:12;;;;;;;6.57;3.75;;;16.00;74.60;;;;;;5053852;28;20060;-67
2023/09/29 06:12:38;;;;;;;9.73;4.22;;;15.90;74.40;;;;;;5055226;28;20528;-71
2023/09/29 06:15:05;;;;;;;10.18;5.22;;;15.80;74.30;;;;;;5046075;28;20142;-66
2023/09/29 06:17:32;;;;;;;9.45;4.90;;;15.80;74.40;;;;;;5062683;28;20210;-67
2023/09/29 06:19:58;;;;;;;8.60;3.83;;;15.80;74.40;;;;;;5051754;28;20031;-68
2023/09/29 06:22:25;;;;;;;9.85;3.85;;;15.80;74.40;;;;;;5052672;28;20043;-68
2023/09/29 06:24:51;;;;;;;11.88;4.43;;;15.70;74.30;;;;;;5056159;28;20078;-66
2023/09/29 06:27:17;;;;;;;8.00;3.80;;;15.70;74.80;;;;;;5045587;28;20072;-67
2023/09/29 06:29:46;;;;;;;10.50;5.53;;;15.70;74.40;;;;;;5054901;28;20147;-68
2023/09/29 06:32:13;;;;;;;10.90;4.93;;;15.60;74.20;;;;;;5048118;28;20037;-67
2023/09/29 06:34:39;;;;;;;10.63;4.47;;;15.60;74.20;;;;;;5044130;28;20535;-67
2023/09/29 06:37:05;;;;;;;9.98;4.80;;;15.60;74.20;;;;;;5053636;28;20495;-69
2023/09/29 06:39:31;;;;;;;9.35;4.03;;;15.60;74.30;;;;;;5053962;28;20037;-69
2023/09/29 06:41:57;;;;;;;8.75;4.28;;;15.60;74.30;;;;;;5056943;28;20071;-67
2023/09/29 06:44:23;;;;;;;10.27;5.22;;;15.50;74.20;;;;;;5055723;28;20109;-66
2023/09/29 06:46:49;;;;;;;8.85;4.20;;;15.50;74.20;;;;;;5062060;28;20037;-69
2023/09/29 06:49:15;;;;;;;10.10;4.47;;;15.50;74.30;;;;;;5054595;28;20365;-68
2023/09/29 06:51:41;;;;;;;8.15;4.47;;;15.50;74.30;;;;;;5058167;28;20120;-70
2023/09/29 06:54:07;;;;;;;10.10;4.80;;;15.40;74.20;;;;;;5059697;28;20071;-68
2023/09/29 06:56:33;;;;;;;10.93;4.38;;;15.40;74.20;;;;;;5059729;28;20070;-67
2023/09/29 06:58:59;;;;;;;11.30;4.43;;;15.40;74.20;;;;;;5053328;28;20115;-68
2023/09/29 07:01:27;;;;;;;9.93;4.65;;;15.40;74.20;;;;;;5061537;28;20542;-67
2023/09/29 07:03:54;;;;;;;8.15;3.90;;;15.40;74.30;;;;;;5056981;28;20040;-67
2023/09/29 07:06:23;;;;;;;9.85;4.40;;;15.40;74.30;;;;;;5057486;28;20055;-70
2023/09/29 07:08:49;;;;;;;12.40;4.93;;;15.40;74.30;;;;;;5059564;28;20036;-67
2023/09/29 07:11:21;;;;;;;8.70;4.35;;;15.40;74.30;;;;;;5056417;28;20423;-67
2023/09/29 07:13:47;;;;;;;8.75;4.40;;;15.30;74.70;;;;;;5053243;28;20498;-69
2023/09/29 07:16:13;;;;;;;12.85;5.60;;;15.40;74.30;;;;;;5050487;28;20404;-69
2023/09/29 07:18:41;;;;;;;12.18;5.68;;;15.30;74.10;;;;;;5058263;28;20032;-67
2023/09/29 07:21:06;;;;;;;17.95;5.93;;;15.30;74.10;;;;;;5064568;28;20029;-70
2023/09/29 07:23:34;;;;;;;11.25;4.85;;;15.40;74.30;;;;;;5056148;28;20500;-67
2023/09/29 07:26:00;;;;;;;12.50;5.07;;;15.40;74.30;;;;;;5045021;28;20044;-67
2023/09/29 07:28:26;;;;;;;12.63;5.18;;;15.30;74.10;;;;;;5061904;28;20094;-67
2023/09/29 07:30:52;;;;;;;15.52;5.90;;;15.40;74.40;;;;;;5060204;28;20028;-67
2023/09/29 07:33:21;;;;;;;16.00;4.95;;;15.40;74.40;;;;;;5053859;28;20048;-66
2023/09/29 07:35:47;;;;;;;10.90;5.63;;;15.40;74.30;;;;;;5047192;28;20598;-67
2023/09/29 07:38:13;;;;;;;11.68;6.05;;;15.50;74.50;;;;;;5058878;28;20032;-67
2023/09/29 07:40:39;;;;;;;11.98;4.88;;;15.50;74.50;;;;;;5062423;28;20032;-66
2023/09/29 07:43:06;;;;;;;20.50;6.97;;;15.60;74.60;;;;;;5061720;28;20452;-67
2023/09/29 07:45:32;;;;;;;14.07;6.55;;;15.70;74.70;;;;;;5054128;28;20075;-67
2023/09/29 07:47:58;;;;;;;13.13;5.57;;;15.60;74.40;;;;;;5063647;28;20368;-67
2023/09/29 07:50:25;;;;;;;12.48;5.93;;;15.70;74.50;;;;;;5063138;28;20017;-69
2023/09/29 07:52:51;;;;;;;12.30;5.43;;;15.80;74.50;;;;;;5060324;28;20037;-69
2023/09/29 07:55:17;;;;;;;16.88;7.28;;;15.80;74.90;;;;;;5059717;28;20130;-72
2023/09/29 07:57:44;;;;;;;12.45;5.40;;;15.90;74.50;;;;;;5057766;28;20024;-68
2023/09/29 08:00:12;;;;;;;10.98;4.45;;;15.90;74.30;;;;;;5061887;28;20051;-68
2023/09/29 08:02:39;;;;;;;12.60;4.95;;;15.90;74.30;;;;;;5061568;28;20051;-68
2023/09/29 08:05:07;;;;;;;16.15;5.57;;;16.00;74.40;;;;;;5060911;28;20020;-68
2023/09/29 08:07:34;;;;;;;10.45;4.85;;;16.00;74.30;;;;;;5061328;28;20131;-68
2023/09/29 08:10:00;;;;;;;13.65;5.55;;;16.10;74.30;;;;;;5058404;28;20605;-67
2023/09/29 08:12:26;;;;;;;15.25;5.32;;;16.10;74.20;;;;;;5063038;28;20516;-68
2023/09/29 08:14:52;;;;;;;11.85;5.20;;;16.20;74.30;;;;;;5054514;28;20542;-68
2023/09/29 08:17:20;;;;;;;12.57;4.70;;;16.20;74.20;;;;;;5054902;28;20573;-68
2023/09/29 08:19:47;;;;;;;13.77;4.90;;;16.20;74.10;;;;;;5061620;28;20036;-67
2023/09/29 08:22:13;;;;;;;13.57;4.97;;;16.30;74.10;;;;;;5061583;28;20075;-68
2023/09/29 08:24:39;;;;;;;10.32;5.05;;;16.30;74.00;;;;;;5061554;28;20488;-67
2023/09/29 08:27:06;;;;;;;13.30;4.60;;;16.40;74.10;;;;;;5060043;28;20025;-68
2023/09/29 08:29:32;;;;;;;14.27;4.97;;;16.40;74.00;;;;;;5059017;28;20028;-67
2023/09/29 08:32:00;;;;;;;11.38;5.38;;;16.40;73.90;;;;;;5054222;28;20090;-70
2023/09/29 08:34:31;;;;;;;11.25;4.65;;;16.50;74.00;;;;;;5061926;28;20313;-67
2023/09/29 08:36:57;;;;;;;10.93;4.53;;;16.50;73.80;;;;;;5057358;28;20158;-66
2023/09/29 08:39:23;;;;;;;10.13;4.82;;;16.50;73.60;;;;;;5058624;28;20029;-70
2023/09/29 08:42:00;;;;;;;12.20;4.43;;;16.60;73.70;;;;;;5059147;28;20377;-66
2023/09/29 08:44:27;;;;;;;11.00;4.25;;;16.60;73.60;;;;;;5061389;28;20414;-66
2023/09/29 08:47:01;;;;;;;14.35;5.32;;;16.60;73.50;;;;;;5061075;28;20601;-67
2023/09/29 08:49:29;;;;;;;10.73;4.10;;;16.60;73.40;;;;;;5057394;28;20040;-66
2023/09/29 08:51:57;;;;;;;12.15;4.75;;;16.70;73.50;;;;;;5065597;28;20087;-68
2023/09/29 08:54:25;;;;;;;10.93;4.22;;;16.70;73.40;;;;;;5065613;28;20050;-66
2023/09/29 08:56:51;;;;;;;11.18;4.75;;;16.70;73.30;;;;;;5059468;28;20040;-66
2023/09/29 08:59:17;;;;;;;13.80;4.97;;;16.80;73.40;;;;;;5066376;28;20402;-67
2023/09/29 09:01:46;;;;;;;10.82;5.03;;;16.80;73.40;;;;;;5062317;28;20070;-67
2023/09/29 09:04:12;;;;;;;15.02;4.78;;;16.80;73.30;;;;;;5053358;28;20302;-68
2023/09/29 09:06:38;;;;;;;12.65;4.40;;;16.80;73.20;;;;;;5055715;28;20035;-67
2023/09/29 09:09:04;;;;;;;8.88;4.07;;;16.90;73.30;;;;;;5060955;28;20665;-66
2023/09/29 09:11:43;;;;;;;9.23;3.33;;;16.90;73.30;;;;;;5061862;28;20153;-66
2023/09/29 09:14:10;;;;;;;13.35;3.65;;;16.90;74.00;;;;;;5052885;28;20051;-69
2023/09/29 09:16:36;;;;;;;9.35;3.97;;;17.10;74.50;;;;;;5056735;28;20109;-67
2023/09/29 09:19:13;;;;;;;9.13;3.45;;;17.20;74.90;;;;;;5062595;28;20710;-66
2023/09/29 09:21:42;;;;;;;10.02;3.45;;;17.30;75.20;;;;;;5060273;28;20042;-68
2023/09/29 09:24:23;;;;;;;8.95;3.08;;;17.50;75.50;;;;;;5051634;28;20048;-68
2023/09/29 09:26:49;;;;;;;7.07;3.00;;;17.70;75.80;;;;;;5052960;28;20040;-67
2023/09/29 09:29:17;;;;;;;10.27;3.85;;;17.80;75.70;;;;;;5054108;28;20287;-66
2023/09/29 09:31:47;;;;;;;9.77;3.03;;;17.90;75.80;;;;;;5056489;28;20040;-70
2023/09/29 09:34:13;;;;;;;6.50;3.03;;;18.10;75.90;;;;;;5050083;28;20123;-66
2023/09/29 09:36:50;;;;;;;14.23;4.18;;;18.20;76.00;;;;;;5058494;28;20048;-68
2023/09/29 09:39:23;;;;;;;9.80;3.92;;;18.30;76.10;;;;;;5052722;28;20033;-68
2023/09/29 09:41:52;;;;;;;7.22;2.88;;;18.40;76.00;;;;;;5057244;28;20116;-68
2023/09/29 09:44:20;;;;;;;9.73;3.17;;;18.50;76.00;;;;;;5049071;28;20033;-66
2023/09/29 09:47:00;;;;;;;9.45;3.55;;;18.60;76.10;;;;;;5049758;28;20158;-66
2023/09/29 09:49:37;;;;;;;8.73;3.40;;;18.70;76.10;;;;;;5057768;28;20036;-67
2023/09/29 09:52:08;;;;;;;8.30;3.05;;;18.80;76.00;;;;;;5054246;28;20029;-68
2023/09/29 09:54:48;;;;;;;12.77;4.63;;;19.00;76.10;;;;;;5049626;28;20602;-65
2023/09/29 09:57:26;;;;;;;13.27;3.90;;;19.10;75.90;;;;;;5053360;28;20055;-66
2023/09/29 09:59:54;;;;;;;7.55;3.17;;;19.20;75.80;;;;;;5058381;28;20059;-69
2023/09/29 10:02:22;;;;;;;8.30;4.00;;;19.20;75.60;;;;;;5057669;28;20033;-66
2023/09/29 10:04:51;;;;;;;11.02;3.55;;;19.30;75.70;;;;;;5059760;28;20296;-66
2023/09/29 10:07:17;;;;;;;10.07;3.15;;;19.30;75.40;;;;;;5059909;28;20039;-67
2023/09/29 10:09:46;;;;;;;10.63;4.47;;;19.40;75.40;;;;;;5056508;28;20024;-67
2023/09/29 10:12:28;;;;;;;9.27;2.90;;;19.50;75.40;;;;;;5052792;28;20124;-70
2023/09/29 10:14:58;;;;;;;8.65;2.63;;;19.60;75.30;;;;;;5045133;28;21181;-66
2023/09/29 10:17:40;;;;;;;7.43;2.72;;;19.70;75.20;;;;;;5048036;28;20028;-67
2023/09/29 10:20:21;;;;;;;10.65;3.03;;;19.80;75.00;;;;;;5056990;28;20035;-68
2023/09/29 10:22:54;;;;;;;10.52;3.42;;;19.90;75.00;;;;;;5055220;28;20087;-67
2023/09/29 10:25:21;;;;;;;9.52;3.60;;;19.90;74.90;;;;;;5053134;28;20097;-67
2023/09/29 10:28:00;;;;;;;11.45;3.75;;;20.00;74.80;;;;;;5058241;28;20499;-69
2023/09/29 10:30:27;;;;;;;7.00;2.28;;;20.10;74.80;;;;;;5061586;28;20024;-67
2023/09/29 10:33:06;;;;;;;12.23;3.72;;;20.10;74.70;;;;;;5058501;28;20453;-68
2023/09/29 10:35:34;;;;;;;7.95;2.40;;;20.20;74.60;;;;;;5054699;28;20041;-72
2023/09/29 10:38:10;;;;;;;6.35;2.72;;;20.30;74.50;;;;;;5058833;28;20028;-66
2023/09/29 10:40:36;;;;;;;7.93;3.03;;;20.40;74.30;;;;;;5056117;28;20039;-69
2023/09/29 10:43:03;;;;;;;7.63;2.67;;;20.60;74.20;;;;;;5058352;28;20090;-68
2023/09/29 10:45:36;;;;;;;9.43;3.58;;;20.70;73.90;;;;;;5057849;28;20491;-68
2023/09/29 10:48:08;;;;;;;7.93;2.28;;;20.80;73.70;;;;;;5055734;28;20113;-66
2023/09/29 10:50:42;;;;;;;6.55;3.03;;;20.90;73.40;;;;;;5058284;28;20090;-68
2023/09/29 10:53:09;;;;;;;7.30;2.80;;;20.90;73.70;;;;;;5050826;28;20516;-71
2023/09/29 10:55:42;;;;;;;8.65;3.08;;;21.00;73.30;;;;;;5056118;28;20338;-69
2023/09/29 10:58:10;;;;;;;7.78;2.35;;;21.00;73.10;;;;;;5057358;28;20036;-68
2023/09/29 11:00:48;;;;;;;9.43;2.80;;;21.00;73.00;;;;;;5047760;28;20315;-69
2023/09/29 11:03:21;;;;;;;6.95;2.38;;;21.10;72.90;;;;;;5048724;28;20520;-67
2023/09/29 11:05:53;;;;;;;7.53;2.70;;;21.10;72.80;;;;;;5055330;28;20041;-68
2023/09/29 11:08:28;;;;;;;11.65;3.50;;;21.20;72.80;;;;;;5060505;28;20533;-68
2023/09/29 11:11:02;;;;;;;9.07;2.33;;;21.30;72.50;;;;;;5062239;28;20295;-71
2023/09/29 11:13:29;;;;;;;8.93;2.42;;;21.50;72.30;;;;;;5059635;28;20028;-67
2023/09/29 11:15:58;;;;;;;8.30;2.25;;;21.60;72.20;;;;;;5052855;28;20177;-68
2023/09/29 11:18:33;;;;;;;10.70;2.50;;;21.60;71.90;;;;;;5060806;28;20178;-67
2023/09/29 11:21:08;;;;;;;5.72;1.95;;;21.80;71.80;;;;;;5063405;28;20461;-71
2023/09/29 11:23:47;;;;;;;8.90;2.63;;;22.00;71.80;;;;;;5062119;28;20024;-68
2023/09/29 11:26:15;;;;;;;7.32;2.63;;;22.10;71.40;;;;;;5056621;28;20112;-72
2023/09/29 11:28:47;;;;;;;10.98;3.50;;;22.20;71.30;;;;;;5064900;28;20024;-68
2023/09/29 11:31:17;;;;;;;9.43;2.60;;;22.20;71.00;;;;;;5066779;28;20044;-67
2023/09/29 11:33:44;;;;;;;5.30;1.80;;;22.30;71.10;;;;;;5050610;28;20568;-68
2023/09/29 11:36:15;;;;;;;7.20;2.40;;;22.20;71.20;;;;;;5055587;28;20040;-67
2023/09/29 11:38:47;;;;;;;9.10;2.42;;;22.30;70.70;;;;;;5059201;28;20457;-71
2023/09/29 11:41:23;;;;;;;8.57;3.25;;;22.20;70.50;;;;;;5063637;28;20129;-68
2023/09/29 11:43:50;;;;;;;3.92;1.88;;;22.20;70.50;;;;;;5062678;28;20666;-67
2023/09/29 11:46:16;;;;;;;5.82;1.88;;;22.20;70.50;;;;;;5061946;28;20433;-70
2023/09/29 11:48:43;;;;;;;7.75;2.10;;;22.20;70.40;;;;;;5063146;28;20031;-71
2023/09/29 11:51:10;;;;;;;5.85;2.38;;;22.20;70.30;;;;;;5062273;28;20024;-67
2023/09/29 11:53:38;;;;;;;9.27;2.70;;;22.20;70.30;;;;;;5059311;28;20397;-68
2023/09/29 11:56:07;;;;;;;6.22;1.63;;;22.20;70.30;;;;;;5054269;28;20086;-66
2023/09/29 11:58:34;;;;;;;6.95;1.67;;;22.20;70.20;;;;;;5062162;28;20051;-70
2023/09/29 12:01:00;;;;;;;6.78;1.42;;;22.20;70.20;;;;;;5059295;28;20037;-68
2023/09/29 12:03:27;;;;;;;5.25;1.88;;;22.30;70.20;;;;;;5061305;28;20060;-68
2023/09/29 12:05:54;;;;;;;4.18;1.38;;;22.30;69.90;;;;;;5062297;28;20040;-67
2023/09/29 12:08:20;;;;;;;8.05;2.10;;;22.40;69.70;;;;;;5061583;28;20029;-72
2023/09/29 12:10:47;;;;;;;6.28;1.98;;;22.50;69.60;;;;;;5061635;28;20041;-67
2023/09/29 12:13:16;;;;;;;6.57;2.33;;;22.50;69.30;;;;;;5056170;28;20161;-69
2023/09/29 12:15:43;;;;;;;5.03;1.67;;;22.60;69.20;;;;;;5058349;28;20544;-68
2023/09/29 12:18:10;;;;;;;7.43;1.65;;;22.70;69.20;;;;;;5060756;28;20509;-66
2023/09/29 12:20:38;;;;;;;6.13;2.17;;;22.70;69.20;;;;;;5057132;28;20121;-67
2023/09/29 12:23:06;;;;;;;7.18;1.95;;;22.70;69.20;;;;;;5059455;28;20036;-66
2023/09/29 12:25:35;;;;;;;6.43;2.15;;;22.60;69.20;;;;;;5052519;28;20041;-67
2023/09/29 12:28:05;;;;;;;5.22;1.63;;;22.60;69.20;;;;;;5053687;28;20082;-66
2023/09/29 12:30:32;;;;;;;4.88;2.10;;;22.60;69.20;;;;;;5050490;28;20041;-67
2023/09/29 12:32:59;;;;;;;5.78;2.10;;;22.60;69.10;;;;;;5061169;28;20036;-66
2023/09/29 12:35:25;;;;;;;5.40;1.20;;;22.60;68.90;;;;;;5052093;28;20139;-67
2023/09/29 12:37:52;;;;;;;7.28;1.75;;;22.70;69.10;;;;;;5058606;28;20086;-69
2023/09/29 12:40:18;;;;;;;4.18;1.67;;;22.70;68.90;;;;;;5062540;28;20068;-69
2023/09/29 12:42:49;;;;;;;5.15;1.52;;;22.70;68.80;;;;;;5062632;28;20528;-66
2023/09/29 12:45:17;;;;;;;7.55;2.17;;;22.70;68.70;;;;;;5055386;28;20509;-66
2023/09/29 12:47:47;;;;;;;4.00;1.27;;;22.70;68.50;;;;;;5055025;28;20032;-70
2023/09/29 12:50:13;;;;;;;6.55;1.45;;;22.70;68.40;;;;;;5064478;28;20195;-67